sensor_id;sensor_type;location;lat;lon;timestamp;P1;durP1;ratioP1;P2;durP2;ratioP2
19505;SDS011;9894;50.852;-0.140;2022-09-09T00:03:54;11.30;;;2.28;;
19505;SDS011;9894;50.852;-0.140;2022-09-09T00:06:24;8.82;;;1.90;;
19505;SDS011;9894;50.852;-0.140;2022-09-09T00:11:42;6.63;;;1.63;;
19505;SDS011;9894;50.852;-0.140;2022-09-09T00:14:13;8.75;;;1.90;;
19505;SDS011;9894;50.852;-0.140;2022-09-09T00:16:43;5.00;;;1.60;;
19505;SDS011;9894;50.852;-0.140;2022-09-09T00:19:16;6.30;;;1.80;;
19505;SDS011;9894;50.852;-0.140;2022-09-09T00:22:12;7.07;;;1.60;;
19505;SDS011;9894;50.852;-0.140;2022-09-09T00:27:06;7.80;;;1.90;;
19505;SDS011;9894;50.852;-0.140;2022-09-09T00:32:15;9.30;;;1.60;;
19505;SDS011;9894;50.852;-0.140;2022-09-09T00:34:52;9.20;;;1.95;;
19505;SDS011;9894;50.852;-0.140;2022-09-09T00:37:20;11.07;;;2.33;;
19505;SDS011;9894;50.852;-0.140;2022-09-09T00:39:48;9.15;;;1.70;;
19505;SDS011;9894;50.852;-0.140;2022-09-09T00:42:18;7.60;;;1.80;;
19505;SDS011;9894;50.852;-0.140;2022-09-09T00:52:36;9.07;;;1.63;;
19505;SDS011;9894;50.852;-0.140;2022-09-09T00:57:36;5.53;;;1.60;;
19505;SDS011;9894;50.852;-0.140;2022-09-09T01:00:22;3.25;;;1.55;;
19505;SDS011;9894;50.852;-0.140;2022-09-09T01:05:59;4.53;;;1.30;;
19505;SDS011;9894;50.852;-0.140;2022-09-09T01:10:56;7.93;;;1.60;;
19505;SDS011;9894;50.852;-0.140;2022-09-09T01:13:32;6.32;;;1.42;;
19505;SDS011;9894;50.852;-0.140;2022-09-09T01:15:59;5.72;;;1.40;;
19505;SDS011;9894;50.852;-0.140;2022-09-09T01:18:35;6.55;;;1.40;;
19505;SDS011;9894;50.852;-0.140;2022-09-09T01:21:04;8.70;;;1.63;;
19505;SDS011;9894;50.852;-0.140;2022-09-09T01:26:12;5.60;;;1.50;;
19505;SDS011;9894;50.852;-0.140;2022-09-09T01:28:42;5.25;;;1.60;;
19505;SDS011;9894;50.852;-0.140;2022-09-09T01:31:10;6.95;;;1.70;;
19505;SDS011;9894;50.852;-0.140;2022-09-09T01:33:37;7.43;;;2.15;;
19505;SDS011;9894;50.852;-0.140;2022-09-09T01:36:08;8.30;;;2.20;;
19505;SDS011;9894;50.852;-0.140;2022-09-09T01:38:35;5.20;;;1.52;;
19505;SDS011;9894;50.852;-0.140;2022-09-09T01:41:02;8.52;;;1.83;;
19505;SDS011;9894;50.852;-0.140;2022-09-09T01:43:28;11.25;;;1.92;;
19505;SDS011;9894;50.852;-0.140;2022-09-09T01:45:55;5.28;;;1.73;;
19505;SDS011;9894;50.852;-0.140;2022-09-09T01:48:22;9.27;;;1.88;;
19505;SDS011;9894;50.852;-0.140;2022-09-09T01:50:49;9.82;;;1.67;;
19505;SDS011;9894;50.852;-0.140;2022-09-09T01:53:15;4.85;;;1.73;;
19505;SDS011;9894;50.852;-0.140;2022-09-09T01:55:44;5.95;;;1.52;;
19505;SDS011;9894;50.852;-0.140;2022-09-09T01:58:24;6.72;;;1.65;;
19505;SDS011;9894;50.852;-0.140;2022-09-09T02:00:56;7.93;;;1.63;;
19505;SDS011;9894;50.852;-0.140;2022-09-09T02:03:29;8.50;;;2.05;;
19505;SDS011;9894;50.852;-0.140;2022-09-09T02:08:26;5.65;;;1.75;;
19505;SDS011;9894;50.852;-0.140;2022-09-09T02:13:20;7.00;;;2.15;;
19505;SDS011;9894;50.852;-0.140;2022-09-09T02:15:50;8.10;;;2.05;;
19505;SDS011;9894;50.852;-0.140;2022-09-09T02:18:20;3.72;;;1.70;;
19505;SDS011;9894;50.852;-0.140;2022-09-09T02:20:48;6.35;;;1.83;;
19505;SDS011;9894;50.852;-0.140;2022-09-09T02:23:16;3.83;;;1.90;;
19505;SDS011;9894;50.852;-0.140;2022-09-09T02:25:43;8.57;;;2.03;;
19505;SDS011;9894;50.852;-0.140;2022-09-09T02:28:11;10.98;;;2.05;;
19505;SDS011;9894;50.852;-0.140;2022-09-09T02:30:39;9.75;;;2.00;;
19505;SDS011;9894;50.852;-0.140;2022-09-09T02:33:06;8.63;;;2.00;;
19505;SDS011;9894;50.852;-0.140;2022-09-09T02:35:33;8.52;;;1.95;;
19505;SDS011;9894;50.852;-0.140;2022-09-09T02:38:03;5.90;;;2.08;;
19505;SDS011;9894;50.852;-0.140;2022-09-09T02:40:31;3.58;;;1.80;;
19505;SDS011;9894;50.852;-0.140;2022-09-09T02:42:57;3.00;;;1.80;;
19505;SDS011;9894;50.852;-0.140;2022-09-09T02:45:26;7.82;;;2.15;;
19505;SDS011;9894;50.852;-0.140;2022-09-09T02:48:03;3.80;;;1.77;;
19505;SDS011;9894;50.852;-0.140;2022-09-09T02:50:33;6.57;;;1.77;;
19505;SDS011;9894;50.852;-0.140;2022-09-09T02:53:07;6.18;;;1.70;;
19505;SDS011;9894;50.852;-0.140;2022-09-09T02:58:02;6.80;;;1.70;;
19505;SDS011;9894;50.852;-0.140;2022-09-09T03:00:31;8.48;;;2.17;;
19505;SDS011;9894;50.852;-0.140;2022-09-09T03:02:57;5.80;;;2.00;;
19505;SDS011;9894;50.852;-0.140;2022-09-09T03:05:23;5.47;;;1.77;;
19505;SDS011;9894;50.852;-0.140;2022-09-09T03:07:50;7.10;;;1.98;;
19505;SDS011;9894;50.852;-0.140;2022-09-09T03:10:16;7.90;;;2.00;;
19505;SDS011;9894;50.852;-0.140;2022-09-09T03:12:43;5.93;;;1.90;;
19505;SDS011;9894;50.852;-0.140;2022-09-09T03:15:09;5.50;;;2.08;;
19505;SDS011;9894;50.852;-0.140;2022-09-09T03:17:36;5.15;;;1.90;;
19505;SDS011;9894;50.852;-0.140;2022-09-09T03:20:03;7.60;;;2.55;;
19505;SDS011;9894;50.852;-0.140;2022-09-09T03:22:29;8.13;;;2.00;;
19505;SDS011;9894;50.852;-0.140;2022-09-09T03:24:55;7.93;;;2.55;;
19505;SDS011;9894;50.852;-0.140;2022-09-09T03:27:21;7.50;;;2.20;;
19505;SDS011;9894;50.852;-0.140;2022-09-09T03:29:47;3.17;;;2.03;;
19505;SDS011;9894;50.852;-0.140;2022-09-09T03:32:16;6.00;;;2.10;;
19505;SDS011;9894;50.852;-0.140;2022-09-09T03:34:42;4.97;;;2.10;;
19505;SDS011;9894;50.852;-0.140;2022-09-09T03:37:08;7.55;;;2.10;;
19505;SDS011;9894;50.852;-0.140;2022-09-09T03:39:34;8.18;;;2.35;;
19505;SDS011;9894;50.852;-0.140;2022-09-09T03:42:01;7.32;;;2.03;;
19505;SDS011;9894;50.852;-0.140;2022-09-09T03:44:29;12.45;;;2.20;;
19505;SDS011;9894;50.852;-0.140;2022-09-09T03:46:55;12.75;;;2.50;;
19505;SDS011;9894;50.852;-0.140;2022-09-09T03:49:21;6.22;;;2.05;;
19505;SDS011;9894;50.852;-0.140;2022-09-09T03:51:48;4.45;;;2.15;;
19505;SDS011;9894;50.852;-0.140;2022-09-09T03:54:14;6.93;;;2.22;;
19505;SDS011;9894;50.852;-0.140;2022-09-09T03:56:40;6.07;;;2.15;;
19505;SDS011;9894;50.852;-0.140;2022-09-09T03:59:06;9.57;;;2.20;;
19505;SDS011;9894;50.852;-0.140;2022-09-09T04:01:34;7.40;;;2.25;;
19505;SDS011;9894;50.852;-0.140;2022-09-09T04:04:03;7.15;;;2.20;;
19505;SDS011;9894;50.852;-0.140;2022-09-09T04:06:29;10.45;;;2.47;;
19505;SDS011;9894;50.852;-0.140;2022-09-09T04:08:55;5.72;;;2.22;;
19505;SDS011;9894;50.852;-0.140;2022-09-09T04:11:21;8.70;;;2.42;;
19505;SDS011;9894;50.852;-0.140;2022-09-09T04:13:47;3.95;;;2.13;;
19505;SDS011;9894;50.852;-0.140;2022-09-09T04:16:17;7.00;;;2.47;;
19505;SDS011;9894;50.852;-0.140;2022-09-09T04:18:43;4.40;;;2.30;;
19505;SDS011;9894;50.852;-0.140;2022-09-09T04:21:10;4.05;;;2.42;;
19505;SDS011;9894;50.852;-0.140;2022-09-09T04:23:37;7.72;;;2.05;;
19505;SDS011;9894;50.852;-0.140;2022-09-09T04:26:03;9.20;;;2.22;;
19505;SDS011;9894;50.852;-0.140;2022-09-09T04:28:31;5.47;;;2.08;;
19505;SDS011;9894;50.852;-0.140;2022-09-09T04:31:03;6.20;;;3.00;;
19505;SDS011;9894;50.852;-0.140;2022-09-09T04:33:29;6.38;;;2.42;;
19505;SDS011;9894;50.852;-0.140;2022-09-09T04:35:56;4.18;;;2.30;;
19505;SDS011;9894;50.852;-0.140;2022-09-09T04:38:23;7.97;;;3.17;;
19505;SDS011;9894;50.852;-0.140;2022-09-09T04:40:50;7.95;;;2.10;;
19505;SDS011;9894;50.852;-0.140;2022-09-09T04:43:17;3.40;;;2.10;;
19505;SDS011;9894;50.852;-0.140;2022-09-09T04:45:46;4.70;;;2.50;;
19505;SDS011;9894;50.852;-0.140;2022-09-09T04:48:12;3.38;;;2.40;;
19505;SDS011;9894;50.852;-0.140;2022-09-09T04:50:39;9.60;;;2.85;;
19505;SDS011;9894;50.852;-0.140;2022-09-09T04:53:08;5.15;;;2.60;;
19505;SDS011;9894;50.852;-0.140;2022-09-09T04:55:34;4.30;;;2.40;;
19505;SDS011;9894;50.852;-0.140;2022-09-09T04:58:07;7.72;;;3.17;;
19505;SDS011;9894;50.852;-0.140;2022-09-09T05:00:36;8.55;;;2.55;;
19505;SDS011;9894;50.852;-0.140;2022-09-09T05:03:05;6.22;;;2.55;;
19505;SDS011;9894;50.852;-0.140;2022-09-09T05:05:33;9.55;;;2.95;;
19505;SDS011;9894;50.852;-0.140;2022-09-09T05:08:06;6.10;;;2.60;;
19505;SDS011;9894;50.852;-0.140;2022-09-09T05:10:32;5.78;;;2.50;;
19505;SDS011;9894;50.852;-0.140;2022-09-09T05:12:59;7.47;;;2.58;;
19505;SDS011;9894;50.852;-0.140;2022-09-09T05:15:25;5.53;;;2.50;;
19505;SDS011;9894;50.852;-0.140;2022-09-09T05:17:51;8.98;;;2.50;;
19505;SDS011;9894;50.852;-0.140;2022-09-09T05:20:18;8.48;;;2.58;;
19505;SDS011;9894;50.852;-0.140;2022-09-09T05:22:44;7.13;;;2.22;;
19505;SDS011;9894;50.852;-0.140;2022-09-09T05:25:10;6.22;;;2.38;;
19505;SDS011;9894;50.852;-0.140;2022-09-09T05:27:36;6.15;;;2.20;;
19505;SDS011;9894;50.852;-0.140;2022-09-09T05:30:02;6.25;;;2.22;;
19505;SDS011;9894;50.852;-0.140;2022-09-09T05:32:30;7.40;;;2.45;;
19505;SDS011;9894;50.852;-0.140;2022-09-09T05:34:59;5.45;;;2.30;;
19505;SDS011;9894;50.852;-0.140;2022-09-09T05:37:26;7.93;;;2.60;;
19505;SDS011;9894;50.852;-0.140;2022-09-09T05:39:52;7.85;;;2.60;;
19505;SDS011;9894;50.852;-0.140;2022-09-09T05:42:29;6.68;;;2.67;;
19505;SDS011;9894;50.852;-0.140;2022-09-09T05:44:55;7.57;;;3.08;;
19505;SDS011;9894;50.852;-0.140;2022-09-09T05:47:23;7.85;;;3.10;;
19505;SDS011;9894;50.852;-0.140;2022-09-09T05:49:49;7.75;;;3.15;;
19505;SDS011;9894;50.852;-0.140;2022-09-09T05:52:15;7.65;;;2.95;;
19505;SDS011;9894;50.852;-0.140;2022-09-09T05:54:41;7.03;;;3.05;;
19505;SDS011;9894;50.852;-0.140;2022-09-09T05:57:08;10.20;;;3.03;;
19505;SDS011;9894;50.852;-0.140;2022-09-09T05:59:34;6.75;;;2.90;;
19505;SDS011;9894;50.852;-0.140;2022-09-09T06:02:00;7.57;;;3.15;;
19505;SDS011;9894;50.852;-0.140;2022-09-09T06:04:26;6.50;;;3.00;;
19505;SDS011;9894;50.852;-0.140;2022-09-09T06:06:52;12.23;;;3.38;;
19505;SDS011;9894;50.852;-0.140;2022-09-09T06:09:18;8.95;;;3.00;;
19505;SDS011;9894;50.852;-0.140;2022-09-09T06:11:45;9.70;;;3.28;;
19505;SDS011;9894;50.852;-0.140;2022-09-09T06:14:11;6.50;;;3.05;;
19505;SDS011;9894;50.852;-0.140;2022-09-09T06:16:37;4.95;;;2.75;;
19505;SDS011;9894;50.852;-0.140;2022-09-09T06:19:03;5.55;;;2.72;;
19505;SDS011;9894;50.852;-0.140;2022-09-09T06:21:30;11.63;;;2.97;;
19505;SDS011;9894;50.852;-0.140;2022-09-09T06:23:57;4.90;;;2.90;;
19505;SDS011;9894;50.852;-0.140;2022-09-09T06:26:28;6.60;;;3.00;;
19505;SDS011;9894;50.852;-0.140;2022-09-09T06:28:55;5.38;;;2.83;;
19505;SDS011;9894;50.852;-0.140;2022-09-09T06:31:23;10.07;;;2.85;;
19505;SDS011;9894;50.852;-0.140;2022-09-09T06:33:51;7.60;;;2.75;;
19505;SDS011;9894;50.852;-0.140;2022-09-09T06:36:18;7.20;;;2.95;;
19505;SDS011;9894;50.852;-0.140;2022-09-09T06:38:45;6.32;;;3.33;;
19505;SDS011;9894;50.852;-0.140;2022-09-09T06:41:11;9.73;;;3.35;;
19505;SDS011;9894;50.852;-0.140;2022-09-09T06:43:38;3.97;;;2.92;;
19505;SDS011;9894;50.852;-0.140;2022-09-09T06:46:05;7.40;;;3.40;;
19505;SDS011;9894;50.852;-0.140;2022-09-09T06:48:33;11.02;;;3.92;;
19505;SDS011;9894;50.852;-0.140;2022-09-09T06:51:00;8.40;;;3.88;;
19505;SDS011;9894;50.852;-0.140;2022-09-09T06:53:26;6.72;;;3.53;;
19505;SDS011;9894;50.852;-0.140;2022-09-09T06:55:53;6.63;;;3.65;;
19505;SDS011;9894;50.852;-0.140;2022-09-09T06:58:20;7.57;;;3.83;;
19505;SDS011;9894;50.852;-0.140;2022-09-09T07:00:49;8.30;;;3.75;;
19505;SDS011;9894;50.852;-0.140;2022-09-09T07:03:15;10.18;;;3.90;;
19505;SDS011;9894;50.852;-0.140;2022-09-09T07:05:41;7.70;;;3.65;;
19505;SDS011;9894;50.852;-0.140;2022-09-09T07:08:07;7.28;;;3.60;;
19505;SDS011;9894;50.852;-0.140;2022-09-09T07:10:33;7.88;;;3.42;;
19505;SDS011;9894;50.852;-0.140;2022-09-09T07:12:59;6.68;;;3.70;;
19505;SDS011;9894;50.852;-0.140;2022-09-09T07:15:27;8.35;;;3.40;;
19505;SDS011;9894;50.852;-0.140;2022-09-09T07:17:53;6.68;;;3.50;;
19505;SDS011;9894;50.852;-0.140;2022-09-09T07:20:19;6.05;;;3.53;;
19505;SDS011;9894;50.852;-0.140;2022-09-09T07:22:45;6.22;;;2.95;;
19505;SDS011;9894;50.852;-0.140;2022-09-09T07:25:11;10.10;;;3.20;;
19505;SDS011;9894;50.852;-0.140;2022-09-09T07:27:39;5.88;;;3.33;;
19505;SDS011;9894;50.852;-0.140;2022-09-09T07:30:05;9.45;;;3.65;;
19505;SDS011;9894;50.852;-0.140;2022-09-09T07:32:32;6.40;;;3.33;;
19505;SDS011;9894;50.852;-0.140;2022-09-09T07:34:58;9.52;;;3.70;;
19505;SDS011;9894;50.852;-0.140;2022-09-09T07:37:25;10.90;;;4.03;;
19505;SDS011;9894;50.852;-0.140;2022-09-09T07:39:51;10.70;;;4.40;;
19505;SDS011;9894;50.852;-0.140;2022-09-09T07:42:17;9.75;;;4.72;;
19505;SDS011;9894;50.852;-0.140;2022-09-09T07:44:44;9.95;;;4.20;;
19505;SDS011;9894;50.852;-0.140;2022-09-09T07:47:10;10.05;;;4.20;;
19505;SDS011;9894;50.852;-0.140;2022-09-09T07:49:36;9.70;;;4.32;;
19505;SDS011;9894;50.852;-0.140;2022-09-09T07:52:02;9.95;;;4.00;;
19505;SDS011;9894;50.852;-0.140;2022-09-09T07:54:28;9.20;;;4.00;;
19505;SDS011;9894;50.852;-0.140;2022-09-09T07:56:55;8.25;;;3.83;;
19505;SDS011;9894;50.852;-0.140;2022-09-09T07:59:21;7.72;;;3.67;;
19505;SDS011;9894;50.852;-0.140;2022-09-09T08:01:48;6.43;;;3.70;;
19505;SDS011;9894;50.852;-0.140;2022-09-09T08:04:18;8.20;;;3.70;;
19505;SDS011;9894;50.852;-0.140;2022-09-09T08:06:54;8.82;;;4.00;;
19505;SDS011;9894;50.852;-0.140;2022-09-09T08:09:22;10.48;;;3.70;;
19505;SDS011;9894;50.852;-0.140;2022-09-09T08:11:50;10.30;;;3.80;;
19505;SDS011;9894;50.852;-0.140;2022-09-09T08:14:16;10.15;;;4.35;;
19505;SDS011;9894;50.852;-0.140;2022-09-09T08:16:44;9.93;;;4.00;;
19505;SDS011;9894;50.852;-0.140;2022-09-09T08:19:10;8.88;;;3.65;;
19505;SDS011;9894;50.852;-0.140;2022-09-09T08:21:37;8.30;;;3.65;;
19505;SDS011;9894;50.852;-0.140;2022-09-09T08:24:05;9.82;;;3.55;;
19505;SDS011;9894;50.852;-0.140;2022-09-09T08:26:32;8.50;;;3.47;;
19505;SDS011;9894;50.852;-0.140;2022-09-09T08:29:00;7.13;;;3.50;;
19505;SDS011;9894;50.852;-0.140;2022-09-09T08:31:30;11.30;;;3.78;;
19505;SDS011;9894;50.852;-0.140;2022-09-09T08:33:58;12.60;;;3.63;;
19505;SDS011;9894;50.852;-0.140;2022-09-09T08:36:25;10.10;;;4.68;;
19505;SDS011;9894;50.852;-0.140;2022-09-09T08:38:53;10.80;;;4.82;;
19505;SDS011;9894;50.852;-0.140;2022-09-09T08:43:46;11.70;;;5.13;;
19505;SDS011;9894;50.852;-0.140;2022-09-09T08:46:23;15.18;;;5.05;;
19505;SDS011;9894;50.852;-0.140;2022-09-09T08:51:47;9.25;;;4.57;;
19505;SDS011;9894;50.852;-0.140;2022-09-09T08:54:14;9.57;;;4.28;;
19505;SDS011;9894;50.852;-0.140;2022-09-09T08:56:41;12.10;;;4.63;;
19505;SDS011;9894;50.852;-0.140;2022-09-09T08:59:07;7.65;;;3.85;;
19505;SDS011;9894;50.852;-0.140;2022-09-09T09:04:37;10.02;;;4.30;;
19505;SDS011;9894;50.852;-0.140;2022-09-09T09:07:10;9.43;;;4.05;;
19505;SDS011;9894;50.852;-0.140;2022-09-09T09:12:24;9.90;;;3.88;;
19505;SDS011;9894;50.852;-0.140;2022-09-09T09:14:51;6.57;;;3.38;;
19505;SDS011;9894;50.852;-0.140;2022-09-09T09:17:21;8.02;;;3.33;;
19505;SDS011;9894;50.852;-0.140;2022-09-09T09:19:49;13.68;;;3.90;;
19505;SDS011;9894;50.852;-0.140;2022-09-09T09:22:20;6.80;;;3.08;;
19505;SDS011;9894;50.852;-0.140;2022-09-09T09:24:54;8.70;;;3.30;;
19505;SDS011;9894;50.852;-0.140;2022-09-09T09:29:47;10.77;;;3.38;;
19505;SDS011;9894;50.852;-0.140;2022-09-09T09:32:16;6.22;;;3.08;;
19505;SDS011;9894;50.852;-0.140;2022-09-09T09:34:48;9.90;;;3.10;;
19505;SDS011;9894;50.852;-0.140;2022-09-09T09:37:22;6.28;;;3.22;;
19505;SDS011;9894;50.852;-0.140;2022-09-09T09:39:49;7.35;;;2.85;;
19505;SDS011;9894;50.852;-0.140;2022-09-09T09:42:16;6.53;;;2.75;;
19505;SDS011;9894;50.852;-0.140;2022-09-09T09:44:43;5.45;;;2.90;;
19505;SDS011;9894;50.852;-0.140;2022-09-09T09:49:38;9.35;;;3.08;;
19505;SDS011;9894;50.852;-0.140;2022-09-09T09:52:05;6.47;;;2.67;;
19505;SDS011;9894;50.852;-0.140;2022-09-09T09:54:39;4.32;;;2.50;;
19505;SDS011;9894;50.852;-0.140;2022-09-09T09:57:08;6.75;;;2.55;;
19505;SDS011;9894;50.852;-0.140;2022-09-09T09:59:35;9.90;;;2.45;;
19505;SDS011;9894;50.852;-0.140;2022-09-09T10:04:59;4.45;;;2.30;;
19505;SDS011;9894;50.852;-0.140;2022-09-09T10:07:26;6.28;;;2.30;;
19505;SDS011;9894;50.852;-0.140;2022-09-09T10:09:56;4.22;;;2.03;;
19505;SDS011;9894;50.852;-0.140;2022-09-09T10:17:28;4.93;;;2.05;;
19505;SDS011;9894;50.852;-0.140;2022-09-09T10:22:27;2.72;;;1.60;;
19505;SDS011;9894;50.852;-0.140;2022-09-09T10:30:18;4.60;;;1.75;;
19505;SDS011;9894;50.852;-0.140;2022-09-09T10:38:09;3.53;;;1.50;;
19505;SDS011;9894;50.852;-0.140;2022-09-09T10:40:58;5.15;;;1.60;;
19505;SDS011;9894;50.852;-0.140;2022-09-09T10:48:59;2.92;;;1.50;;
19505;SDS011;9894;50.852;-0.140;2022-09-09T11:00:05;1.85;;;1.20;;
19505;SDS011;9894;50.852;-0.140;2022-09-09T11:02:33;4.18;;;1.50;;
19505;SDS011;9894;50.852;-0.140;2022-09-09T11:05:12;3.45;;;1.50;;
19505;SDS011;9894;50.852;-0.140;2022-09-09T11:07:55;5.10;;;1.48;;
19505;SDS011;9894;50.852;-0.140;2022-09-09T11:10:37;4.03;;;1.70;;
19505;SDS011;9894;50.852;-0.140;2022-09-09T11:13:09;3.25;;;1.50;;
19505;SDS011;9894;50.852;-0.140;2022-09-09T11:15:40;6.10;;;1.65;;
19505;SDS011;9894;50.852;-0.140;2022-09-09T11:18:08;2.28;;;1.30;;
19505;SDS011;9894;50.852;-0.140;2022-09-09T11:20:35;3.58;;;1.30;;
19505;SDS011;9894;50.852;-0.140;2022-09-09T11:23:07;2.38;;;1.30;;
19505;SDS011;9894;50.852;-0.140;2022-09-09T11:25:45;2.10;;;1.10;;
19505;SDS011;9894;50.852;-0.140;2022-09-09T11:41:04;6.43;;;1.75;;
19505;SDS011;9894;50.852;-0.140;2022-09-09T11:43:33;5.60;;;1.75;;
19505;SDS011;9894;50.852;-0.140;2022-09-09T11:46:04;4.47;;;1.45;;
19505;SDS011;9894;50.852;-0.140;2022-09-09T11:48:33;7.18;;;1.88;;
19505;SDS011;9894;50.852;-0.140;2022-09-09T11:51:09;5.60;;;1.70;;
19505;SDS011;9894;50.852;-0.140;2022-09-09T11:53:52;3.15;;;1.50;;
19505;SDS011;9894;50.852;-0.140;2022-09-09T11:56:26;6.50;;;1.70;;
19505;SDS011;9894;50.852;-0.140;2022-09-09T11:59:06;5.50;;;1.77;;
19505;SDS011;9894;50.852;-0.140;2022-09-09T12:06:44;3.50;;;1.60;;
19505;SDS011;9894;50.852;-0.140;2022-09-09T12:12:06;5.07;;;1.73;;
19505;SDS011;9894;50.852;-0.140;2022-09-09T12:14:37;4.88;;;1.77;;
19505;SDS011;9894;50.852;-0.140;2022-09-09T12:17:40;4.60;;;2.03;;
19505;SDS011;9894;50.852;-0.140;2022-09-09T12:27:40;4.20;;;2.03;;
19505;SDS011;9894;50.852;-0.140;2022-09-09T12:30:09;4.57;;;2.00;;
19505;SDS011;9894;50.852;-0.140;2022-09-09T12:32:36;6.60;;;2.20;;
19505;SDS011;9894;50.852;-0.140;2022-09-09T12:37:36;9.52;;;2.05;;
19505;SDS011;9894;50.852;-0.140;2022-09-09T12:40:04;5.50;;;1.55;;
19505;SDS011;9894;50.852;-0.140;2022-09-09T12:42:31;5.07;;;1.90;;
19505;SDS011;9894;50.852;-0.140;2022-09-09T12:45:02;6.20;;;1.90;;
19505;SDS011;9894;50.852;-0.140;2022-09-09T12:47:42;5.25;;;1.60;;
19505;SDS011;9894;50.852;-0.140;2022-09-09T12:50:27;3.45;;;1.80;;
19505;SDS011;9894;50.852;-0.140;2022-09-09T12:52:58;5.03;;;1.60;;
19505;SDS011;9894;50.852;-0.140;2022-09-09T12:55:27;5.43;;;1.80;;
19505;SDS011;9894;50.852;-0.140;2022-09-09T12:57:55;4.18;;;1.58;;
19505;SDS011;9894;50.852;-0.140;2022-09-09T13:00:22;5.78;;;1.80;;
19505;SDS011;9894;50.852;-0.140;2022-09-09T13:03:02;5.15;;;1.80;;
19505;SDS011;9894;50.852;-0.140;2022-09-09T13:05:34;3.50;;;1.75;;
19505;SDS011;9894;50.852;-0.140;2022-09-09T13:08:02;5.65;;;1.80;;
19505;SDS011;9894;50.852;-0.140;2022-09-09T13:10:29;5.55;;;1.80;;
19505;SDS011;9894;50.852;-0.140;2022-09-09T13:12:58;5.07;;;1.85;;
19505;SDS011;9894;50.852;-0.140;2022-09-09T13:15:26;6.07;;;1.90;;
19505;SDS011;9894;50.852;-0.140;2022-09-09T13:17:54;4.65;;;2.13;;
19505;SDS011;9894;50.852;-0.140;2022-09-09T13:20:20;2.88;;;1.83;;
19505;SDS011;9894;50.852;-0.140;2022-09-09T13:22:48;4.70;;;2.13;;
19505;SDS011;9894;50.852;-0.140;2022-09-09T13:25:19;5.05;;;2.17;;
19505;SDS011;9894;50.852;-0.140;2022-09-09T13:27:56;4.70;;;2.40;;
19505;SDS011;9894;50.852;-0.140;2022-09-09T13:30:24;4.18;;;1.92;;
19505;SDS011;9894;50.852;-0.140;2022-09-09T13:35:32;2.92;;;2.10;;
19505;SDS011;9894;50.852;-0.140;2022-09-09T13:37:58;4.88;;;2.40;;
19505;SDS011;9894;50.852;-0.140;2022-09-09T13:40:25;2.95;;;2.20;;
19505;SDS011;9894;50.852;-0.140;2022-09-09T13:42:52;3.83;;;2.28;;
19505;SDS011;9894;50.852;-0.140;2022-09-09T13:45:22;2.78;;;1.90;;
19505;SDS011;9894;50.852;-0.140;2022-09-09T13:47:49;3.25;;;2.00;;
19505;SDS011;9894;50.852;-0.140;2022-09-09T13:50:18;2.60;;;1.90;;
19505;SDS011;9894;50.852;-0.140;2022-09-09T13:52:45;5.88;;;2.28;;
19505;SDS011;9894;50.852;-0.140;2022-09-09T13:55:12;3.88;;;1.90;;
19505;SDS011;9894;50.852;-0.140;2022-09-09T13:57:38;2.53;;;1.63;;
19505;SDS011;9894;50.852;-0.140;2022-09-09T14:00:05;4.18;;;1.70;;
19505;SDS011;9894;50.852;-0.140;2022-09-09T14:02:34;3.08;;;1.80;;
19505;SDS011;9894;50.852;-0.140;2022-09-09T14:05:00;3.35;;;1.73;;
19505;SDS011;9894;50.852;-0.140;2022-09-09T14:07:26;2.30;;;1.77;;
19505;SDS011;9894;50.852;-0.140;2022-09-09T14:09:53;2.55;;;1.63;;
19505;SDS011;9894;50.852;-0.140;2022-09-09T14:12:20;1.88;;;1.50;;
19505;SDS011;9894;50.852;-0.140;2022-09-09T14:14:46;2.60;;;1.60;;
19505;SDS011;9894;50.852;-0.140;2022-09-09T14:17:12;3.35;;;1.90;;
19505;SDS011;9894;50.852;-0.140;2022-09-09T14:19:39;5.60;;;1.80;;
19505;SDS011;9894;50.852;-0.140;2022-09-09T14:22:05;3.28;;;1.70;;
19505;SDS011;9894;50.852;-0.140;2022-09-09T14:24:31;4.20;;;2.00;;
19505;SDS011;9894;50.852;-0.140;2022-09-09T14:26:58;3.92;;;2.10;;
19505;SDS011;9894;50.852;-0.140;2022-09-09T14:29:24;2.20;;;2.05;;
19505;SDS011;9894;50.852;-0.140;2022-09-09T14:31:51;2.80;;;1.90;;
19505;SDS011;9894;50.852;-0.140;2022-09-09T14:34:17;2.70;;;1.88;;
19505;SDS011;9894;50.852;-0.140;2022-09-09T14:36:43;2.40;;;2.15;;
19505;SDS011;9894;50.852;-0.140;2022-09-09T14:39:13;2.85;;;2.50;;
19505;SDS011;9894;50.852;-0.140;2022-09-09T14:41:39;3.05;;;2.60;;
19505;SDS011;9894;50.852;-0.140;2022-09-09T14:44:05;2.72;;;2.50;;
19505;SDS011;9894;50.852;-0.140;2022-09-09T14:46:31;4.72;;;3.03;;
19505;SDS011;9894;50.852;-0.140;2022-09-09T14:48:58;2.60;;;2.38;;
19505;SDS011;9894;50.852;-0.140;2022-09-09T14:51:24;4.13;;;2.70;;
19505;SDS011;9894;50.852;-0.140;2022-09-09T14:53:56;4.57;;;2.40;;
19505;SDS011;9894;50.852;-0.140;2022-09-09T14:56:25;3.38;;;2.63;;
19505;SDS011;9894;50.852;-0.140;2022-09-09T14:58:54;5.57;;;3.10;;
19505;SDS011;9894;50.852;-0.140;2022-09-09T15:01:21;3.25;;;2.95;;
19505;SDS011;9894;50.852;-0.140;2022-09-09T15:03:52;4.28;;;3.88;;
19505;SDS011;9894;50.852;-0.140;2022-09-09T15:06:19;5.43;;;4.93;;
19505;SDS011;9894;50.852;-0.140;2022-09-09T15:08:45;6.05;;;5.60;;
19505;SDS011;9894;50.852;-0.140;2022-09-09T15:11:12;7.80;;;7.18;;
19505;SDS011;9894;50.852;-0.140;2022-09-09T15:13:39;8.00;;;7.30;;
19505;SDS011;9894;50.852;-0.140;2022-09-09T15:16:06;9.15;;;8.25;;
19505;SDS011;9894;50.852;-0.140;2022-09-09T15:18:33;9.07;;;8.38;;
19505;SDS011;9894;50.852;-0.140;2022-09-09T15:21:01;9.43;;;8.50;;
19505;SDS011;9894;50.852;-0.140;2022-09-09T15:23:28;8.75;;;8.00;;
19505;SDS011;9894;50.852;-0.140;2022-09-09T15:25:54;8.27;;;7.68;;
19505;SDS011;9894;50.852;-0.140;2022-09-09T15:28:21;7.82;;;7.22;;
19505;SDS011;9894;50.852;-0.140;2022-09-09T15:30:48;7.50;;;6.90;;
19505;SDS011;9894;50.852;-0.140;2022-09-09T15:33:15;7.45;;;6.80;;
19505;SDS011;9894;50.852;-0.140;2022-09-09T15:35:41;6.70;;;6.20;;
19505;SDS011;9894;50.852;-0.140;2022-09-09T15:38:07;6.90;;;6.30;;
19505;SDS011;9894;50.852;-0.140;2022-09-09T15:40:33;6.50;;;6.00;;
19505;SDS011;9894;50.852;-0.140;2022-09-09T15:42:59;7.45;;;6.25;;
19505;SDS011;9894;50.852;-0.140;2022-09-09T15:45:26;6.00;;;5.50;;
19505;SDS011;9894;50.852;-0.140;2022-09-09T15:47:52;5.40;;;5.00;;
19505;SDS011;9894;50.852;-0.140;2022-09-09T15:50:18;4.93;;;4.47;;
19505;SDS011;9894;50.852;-0.140;2022-09-09T15:52:44;5.45;;;4.40;;
19505;SDS011;9894;50.852;-0.140;2022-09-09T15:55:11;4.30;;;4.00;;
19505;SDS011;9894;50.852;-0.140;2022-09-09T15:57:40;4.97;;;4.55;;
19505;SDS011;9894;50.852;-0.140;2022-09-09T16:00:06;4.70;;;3.97;;
19505;SDS011;9894;50.852;-0.140;2022-09-09T16:02:33;4.53;;;4.13;;
19505;SDS011;9894;50.852;-0.140;2022-09-09T16:05:00;4.00;;;3.70;;
19505;SDS011;9894;50.852;-0.140;2022-09-09T16:07:26;4.18;;;3.83;;
19505;SDS011;9894;50.852;-0.140;2022-09-09T16:09:52;3.45;;;3.22;;
19505;SDS011;9894;50.852;-0.140;2022-09-09T16:12:19;3.53;;;2.90;;
19505;SDS011;9894;50.852;-0.140;2022-09-09T16:14:45;3.28;;;2.58;;
19505;SDS011;9894;50.852;-0.140;2022-09-09T16:17:11;2.50;;;2.30;;
19505;SDS011;9894;50.852;-0.140;2022-09-09T16:19:37;3.40;;;2.20;;
19505;SDS011;9894;50.852;-0.140;2022-09-09T16:22:03;3.05;;;2.10;;
19505;SDS011;9894;50.852;-0.140;2022-09-09T16:24:31;3.55;;;2.00;;
19505;SDS011;9894;50.852;-0.140;2022-09-09T16:26:58;4.65;;;2.10;;
19505;SDS011;9894;50.852;-0.140;2022-09-09T16:29:24;3.45;;;2.10;;
19505;SDS011;9894;50.852;-0.140;2022-09-09T16:31:52;4.85;;;2.30;;
19505;SDS011;9894;50.852;-0.140;2022-09-09T16:34:19;5.47;;;2.20;;
19505;SDS011;9894;50.852;-0.140;2022-09-09T16:36:45;3.38;;;2.20;;
19505;SDS011;9894;50.852;-0.140;2022-09-09T16:39:15;2.95;;;2.15;;
19505;SDS011;9894;50.852;-0.140;2022-09-09T16:41:42;2.20;;;2.00;;
19505;SDS011;9894;50.852;-0.140;2022-09-09T16:44:10;3.58;;;2.10;;
19505;SDS011;9894;50.852;-0.140;2022-09-09T16:46:38;3.20;;;2.00;;
19505;SDS011;9894;50.852;-0.140;2022-09-09T16:49:05;2.65;;;1.50;;
19505;SDS011;9894;50.852;-0.140;2022-09-09T16:51:33;4.05;;;1.60;;
19505;SDS011;9894;50.852;-0.140;2022-09-09T16:54:00;3.00;;;1.42;;